createdAt,value
2019-03-04T00:01:38.455Z,10.00
2019-03-04T00:04:06.715Z,10.10
2019-03-04T00:06:37.679Z,10.10
2019-03-04T00:09:08.155Z,10.10
2019-03-04T00:11:36.428Z,10.10
2019-03-04T00:14:04.758Z,10.10
2019-03-04T00:16:33.115Z,10.20
2019-03-04T00:19:05.836Z,10.10
2019-03-04T00:21:34.104Z,10.20
2019-03-04T00:24:05.098Z,10.20
2019-03-04T00:26:37.962Z,10.10
2019-03-04T00:29:06.229Z,10.10
2019-03-04T00:31:36.854Z,10.10
2019-03-04T00:34:04.493Z,10.10
2019-03-04T00:36:32.777Z,10.10
2019-03-04T00:39:04.120Z,10.00
2019-03-04T00:41:34.019Z,10.00
2019-03-04T00:44:02.279Z,10.10
2019-03-04T00:46:30.575Z,10.00
2019-03-04T00:48:58.858Z,10.00
2019-03-04T00:51:27.185Z,10.00
2019-03-04T00:53:55.469Z,10.10
2019-03-04T00:56:23.734Z,10.00
2019-03-04T00:58:53.624Z,10.00
2019-03-04T01:01:24.861Z,10.00
2019-03-04T01:03:53.111Z,10.10
2019-03-04T01:06:21.372Z,10.00
2019-03-04T01:08:49.677Z,10.00
2019-03-04T01:11:22.121Z,10.00
2019-03-04T01:13:50.390Z,10.10
2019-03-04T01:16:18.672Z,10.00
2019-03-04T01:18:52.972Z,10.00
2019-03-04T01:21:21.240Z,9.90
2019-03-04T01:23:51.486Z,10.00
2019-03-04T01:26:19.516Z,9.90
2019-03-04T01:28:47.771Z,10.00
2019-03-04T01:31:20.714Z,10.00
2019-03-04T01:33:48.974Z,9.90
2019-03-04T01:36:17.240Z,10.00
2019-03-04T01:38:47.117Z,10.00
2019-03-04T01:41:15.386Z,10.00
2019-03-04T01:43:43.645Z,10.10
2019-03-04T01:46:11.932Z,10.10
2019-03-04T01:48:40.196Z,10.10
2019-03-04T01:51:08.468Z,10.10
2019-03-04T01:53:36.759Z,10.10
2019-03-04T01:56:05.100Z,9.90
2019-03-04T01:58:33.380Z,10.00
2019-03-04T02:01:01.714Z,9.90
2019-03-04T02:03:29.981Z,9.70
2019-03-04T02:05:59.973Z,9.70
2019-03-04T02:08:28.316Z,9.60
2019-03-04T02:10:56.575Z,9.60
2019-03-04T02:13:24.836Z,9.50
2019-03-04T02:15:53.119Z,9.40
2019-03-04T02:18:26.816Z,9.40
2019-03-04T02:20:55.072Z,9.40
2019-03-04T02:23:23.363Z,9.30
2019-03-04T02:26:10.584Z,9.30
2019-03-04T02:28:38.859Z,9.10
2019-03-04T02:31:07.131Z,9.00
2019-03-04T02:33:35.468Z,8.90
2019-03-04T02:36:03.808Z,8.90
2019-03-04T02:38:32.069Z,8.80
2019-03-04T02:41:01.965Z,8.80
2019-03-04T02:43:30.309Z,8.70
2019-03-04T02:45:59.057Z,8.60
2019-03-04T02:48:27.324Z,8.50
2019-03-04T02:50:55.677Z,8.40
2019-03-04T02:53:23.998Z,8.40
2019-03-04T02:55:52.284Z,8.30
2019-03-04T02:58:20.636Z,8.40
2019-03-04T03:00:48.916Z,8.50
2019-03-04T03:03:17.272Z,8.40
2019-03-04T03:05:45.611Z,8.40
2019-03-04T03:08:13.864Z,8.40
2019-03-04T03:10:43.752Z,8.40
2019-03-04T03:13:12.032Z,8.50
2019-03-04T03:15:40.288Z,8.50
2019-03-04T03:18:08.548Z,8.50
2019-03-04T03:20:36.833Z,8.30
2019-03-04T03:23:05.100Z,8.20
2019-03-04T03:25:33.359Z,8.10
2019-03-04T03:28:01.702Z,8.00
2019-03-04T03:30:32.918Z,7.90
2019-03-04T03:33:01.245Z,7.90
2019-03-04T03:35:29.995Z,7.90
2019-03-04T03:37:58.326Z,7.90
2019-03-04T03:40:26.583Z,8.10
2019-03-04T03:42:54.861Z,8.00
2019-03-04T03:45:23.120Z,7.90
2019-03-04T03:47:51.378Z,7.80
2019-03-04T03:50:19.669Z,7.80
2019-03-04T03:52:47.970Z,7.80
2019-03-04T03:55:16.898Z,7.90
2019-03-04T03:57:45.347Z,7.90
2019-03-04T04:00:21.189Z,7.90
2019-03-04T04:02:49.534Z,7.80
2019-03-04T04:05:17.800Z,7.80
2019-03-04T04:07:49.131Z,7.80
2019-03-04T04:10:21.529Z,7.80
2019-03-04T04:12:49.850Z,7.90
2019-03-04T04:15:19.123Z,7.90
2019-03-04T04:17:47.494Z,7.90
2019-03-04T04:20:15.818Z,7.90
2019-03-04T04:22:44.078Z,7.70
2019-03-04T04:25:12.636Z,7.70
2019-03-04T04:27:40.953Z,7.80
2019-03-04T04:30:15.220Z,7.80
2019-03-04T04:32:44.687Z,7.70
2019-03-04T04:35:12.919Z,7.70
2019-03-04T04:37:41.185Z,7.70
2019-03-04T04:40:11.406Z,7.60
2019-03-04T04:42:39.733Z,7.50
2019-03-04T04:45:11.784Z,7.50
2019-03-04T04:47:41.964Z,7.30
2019-03-04T04:50:16.330Z,7.30
2019-03-04T04:52:44.644Z,7.30
2019-03-04T04:55:12.985Z,7.30
2019-03-04T04:57:41.317Z,7.30
2019-03-04T05:00:12.728Z,7.40
2019-03-04T05:02:41.027Z,7.40
2019-03-04T05:05:13.243Z,7.50
2019-03-04T05:07:43.147Z,7.50
2019-03-04T05:10:19.763Z,7.70
2019-03-04T05:12:48.104Z,7.70
2019-03-04T05:15:16.772Z,7.50
2019-03-04T05:17:45.054Z,7.50
2019-03-04T05:20:21.970Z,7.60
2019-03-04T05:22:50.273Z,7.60
2019-03-04T05:25:18.599Z,7.70
2019-03-04T05:27:46.857Z,7.80
2019-03-04T05:30:22.784Z,7.90
2019-03-04T05:32:54.001Z,7.80
2019-03-04T05:35:22.265Z,7.90
2019-03-04T05:37:52.278Z,8.00
2019-03-04T05:40:21.382Z,8.10
2019-03-04T05:42:49.644Z,8.20
2019-03-04T05:45:18.739Z,8.20
2019-03-04T05:47:47.068Z,8.30
2019-03-04T05:50:28.130Z,8.20
2019-03-04T05:52:57.633Z,8.20
2019-03-04T05:55:25.868Z,8.20
2019-03-04T05:57:54.150Z,8.20
2019-03-04T06:00:24.830Z,8.20
2019-03-04T06:02:56.731Z,8.20
2019-03-04T06:05:24.981Z,8.20
2019-03-04T06:07:54.903Z,8.20
2019-03-04T06:10:23.164Z,8.30
2019-03-04T06:12:51.430Z,8.30
2019-03-04T06:15:24.618Z,8.40
2019-03-04T06:17:52.879Z,8.40
2019-03-04T06:20:23.873Z,8.50
2019-03-04T06:22:52.208Z,8.50
2019-03-04T06:25:30.841Z,8.60
2019-03-04T06:27:58.518Z,8.60
2019-03-04T06:30:31.587Z,8.60
2019-03-04T06:32:59.952Z,8.70
2019-03-04T06:35:28.220Z,8.80
2019-03-04T06:37:56.562Z,8.70
2019-03-04T06:40:24.943Z,8.70
2019-03-04T06:42:53.208Z,8.70
2019-03-04T06:45:21.469Z,8.70
2019-03-04T06:47:49.767Z,8.70
2019-03-04T06:50:47.863Z,8.70
2019-03-04T06:53:37.468Z,8.70
2019-03-04T06:56:11.599Z,8.70
2019-03-04T06:58:46.053Z,8.80
2019-03-04T07:01:17.370Z,8.80
2019-03-04T07:03:46.061Z,8.80
2019-03-04T07:06:14.332Z,8.90
2019-03-04T07:08:45.851Z,8.90
2019-03-04T07:11:14.188Z,8.90
2019-03-04T07:13:42.497Z,8.90
2019-03-04T07:16:10.805Z,8.90
2019-03-04T07:18:39.088Z,8.90
2019-03-04T07:21:07.356Z,9.00
2019-03-04T07:23:35.614Z,9.00
2019-03-04T07:26:03.961Z,9.10
2019-03-04T07:28:32.267Z,9.20
2019-03-04T07:31:02.199Z,9.20
2019-03-04T07:33:31.980Z,9.30
2019-03-04T07:36:00.332Z,9.40
2019-03-04T07:38:48.245Z,9.50
2019-03-04T07:41:18.169Z,9.50
2019-03-04T07:43:46.424Z,9.60
2019-03-04T07:46:14.680Z,9.70
2019-03-04T07:48:47.293Z,9.80
2019-03-04T07:51:21.853Z,9.90
2019-03-04T07:53:51.304Z,10.00
2019-03-04T07:56:19.604Z,10.20
2019-03-04T07:58:50.385Z,10.30
2019-03-04T08:01:18.692Z,10.40
2019-03-04T08:03:48.600Z,10.40
2019-03-04T08:06:20.204Z,10.50
2019-03-04T08:09:15.623Z,10.50
2019-03-04T08:12:03.522Z,10.60
2019-03-04T08:14:31.840Z,10.60
2019-03-04T08:17:00.095Z,10.70
2019-03-04T08:19:32.147Z,10.80
2019-03-04T08:22:02.712Z,10.90
2019-03-04T08:24:30.426Z,11.10
2019-03-04T08:26:58.689Z,11.20
2019-03-04T08:29:29.073Z,11.20
2019-03-04T08:32:02.029Z,11.40
2019-03-04T08:34:31.379Z,11.50
2019-03-04T08:36:59.839Z,11.70
2019-03-04T08:39:32.843Z,11.80
2019-03-04T08:42:01.235Z,11.90
2019-03-04T08:44:31.630Z,12.10
2019-03-04T08:47:01.669Z,12.20
2019-03-04T08:49:32.260Z,12.40
2019-03-04T08:52:02.641Z,12.50
2019-03-04T08:54:38.048Z,12.60
2019-03-04T08:57:06.343Z,12.70
2019-03-04T08:59:34.611Z,12.60
2019-03-04T09:02:13.695Z,13.10
2019-03-04T09:04:41.959Z,13.40
2019-03-04T09:07:10.229Z,13.40
2019-03-04T09:09:39.978Z,13.50
2019-03-04T09:12:08.255Z,13.70
2019-03-04T09:14:43.519Z,13.80
2019-03-04T09:17:11.845Z,13.80
2019-03-04T09:19:43.180Z,13.90
2019-03-04T09:22:12.637Z,14.10
2019-03-04T09:24:40.952Z,14.50
2019-03-04T09:27:09.240Z,14.30
2019-03-04T09:29:39.199Z,14.30
2019-03-04T09:32:07.490Z,14.20
2019-03-04T09:34:35.752Z,14.20
2019-03-04T09:37:04.018Z,14.50
2019-03-04T09:39:32.320Z,14.50
2019-03-04T09:42:02.253Z,14.60
2019-03-04T09:44:36.681Z,14.80
2019-03-04T09:47:07.737Z,15.20
2019-03-04T09:49:36.032Z,15.50
2019-03-04T09:52:04.305Z,15.70
2019-03-04T09:54:34.224Z,15.70
2019-03-04T09:57:03.796Z,15.80
2019-03-04T09:59:32.063Z,15.70
2019-03-04T10:02:01.972Z,15.60
2019-03-04T10:04:42.291Z,15.50
2019-03-04T10:07:19.390Z,15.60
2019-03-04T10:10:05.533Z,15.70
2019-03-04T10:12:53.324Z,15.50
2019-03-04T10:15:30.739Z,15.40
2019-03-04T10:18:35.348Z,15.40
2019-03-04T10:21:35.301Z,15.40
2019-03-04T10:24:13.830Z,15.70
2019-03-04T10:26:51.255Z,16.50
2019-03-04T10:29:49.932Z,19.50
2019-03-04T10:32:24.425Z,19.60
2019-03-04T10:34:58.492Z,18.20
2019-03-04T10:37:47.828Z,17.70
2019-03-04T10:40:57.970Z,17.30
2019-03-04T10:43:32.287Z,17.80
2019-03-04T10:46:06.614Z,16.70
2019-03-04T10:48:39.084Z,16.70
2019-03-04T10:51:06.661Z,18.80
2019-03-04T10:53:36.687Z,20.30
2019-03-04T10:56:05.020Z,18.70
2019-03-04T10:58:33.277Z,21.80
2019-03-04T11:01:01.655Z,21.10
2019-03-04T11:03:38.324Z,20.80
2019-03-04T11:06:08.264Z,21.70
2019-03-04T11:08:36.532Z,20.30
2019-03-04T11:11:04.799Z,19.10
2019-03-04T11:13:35.688Z,16.70
2019-03-04T11:16:06.596Z,16.20
2019-03-04T11:18:34.860Z,15.60
2019-03-04T11:21:03.147Z,15.20
2019-03-04T11:23:31.470Z,14.90
2019-03-04T11:25:59.769Z,14.60
2019-03-04T11:28:28.183Z,14.40
2019-03-04T11:30:58.715Z,14.40
2019-03-04T11:33:27.958Z,14.20
2019-03-04T11:35:56.324Z,14.10
2019-03-04T11:38:36.225Z,14.10
2019-03-04T11:41:06.964Z,14.10
2019-03-04T11:43:35.279Z,14.10
2019-03-04T11:46:05.231Z,14.30
2019-03-04T11:48:36.228Z,14.20
2019-03-04T11:51:04.609Z,13.90
2019-03-04T11:53:39.019Z,13.70
2019-03-04T11:56:08.230Z,13.40
2019-03-04T11:58:38.151Z,12.90
2019-03-04T12:01:26.390Z,12.50
2019-03-04T12:03:55.609Z,12.30
2019-03-04T12:06:23.860Z,12.30
2019-03-04T12:08:58.253Z,12.40
2019-03-04T12:11:37.782Z,12.00
2019-03-04T12:13:58.221Z,12.00
2019-03-04T12:16:31.040Z,12.20
2019-03-04T12:18:59.383Z,12.00
2019-03-04T12:21:27.640Z,12.00
2019-03-04T12:23:59.208Z,11.90
2019-03-04T12:26:28.976Z,11.70
2019-03-04T12:28:57.296Z,11.40
2019-03-04T12:31:28.438Z,11.30
2019-03-04T12:33:58.614Z,10.90
2019-03-04T12:36:28.573Z,10.80
2019-03-04T12:38:56.828Z,10.90
2019-03-04T12:41:31.739Z,10.70
2019-03-04T12:44:00.068Z,10.60
2019-03-04T12:46:32.628Z,10.40
2019-03-04T12:49:00.208Z,10.60
2019-03-04T12:51:28.476Z,10.50
2019-03-04T12:53:56.751Z,10.20
2019-03-04T12:56:25.052Z,10.40
2019-03-04T12:58:57.115Z,10.30
2019-03-04T13:01:26.935Z,10.10
2019-03-04T13:03:55.192Z,9.60
2019-03-04T13:06:28.283Z,9.80
2019-03-04T13:08:58.253Z,9.60
2019-03-04T13:11:28.192Z,9.70
2019-03-04T13:13:56.544Z,9.60
2019-03-04T13:16:26.720Z,9.40
2019-03-04T13:18:57.125Z,9.30
2019-03-04T13:21:27.023Z,9.20
2019-03-04T13:23:55.283Z,9.00
2019-03-04T13:26:23.654Z,9.20
2019-03-04T13:28:56.284Z,9.30
2019-03-04T13:31:24.547Z,9.00
2019-03-04T13:33:52.836Z,8.80
2019-03-04T13:36:24.160Z,9.20
2019-03-04T13:38:54.664Z,9.20
2019-03-04T13:41:23.957Z,9.10
2019-03-04T13:43:52.248Z,8.60
2019-03-04T13:46:20.499Z,8.60
2019-03-04T13:48:48.780Z,8.70
2019-03-04T13:51:17.050Z,8.50
2019-03-04T13:53:45.384Z,8.50
2019-03-04T13:56:13.655Z,8.30
2019-03-04T13:58:45.195Z,8.40
2019-03-04T14:01:14.604Z,8.30
2019-03-04T14:03:44.768Z,8.60
2019-03-04T14:06:14.297Z,8.60
2019-03-04T14:08:44.197Z,8.70
2019-03-04T14:11:14.403Z,8.50
2019-03-04T14:13:42.463Z,8.30
2019-03-04T14:16:10.774Z,8.20
2019-03-04T14:18:39.040Z,8.20
2019-03-04T14:21:08.987Z,8.10
2019-03-04T14:23:37.307Z,8.20
2019-03-04T14:26:07.239Z,8.00
2019-03-04T14:28:36.581Z,8.10
2019-03-04T14:31:12.817Z,8.00
2019-03-04T14:33:41.080Z,7.90
2019-03-04T14:36:09.338Z,7.90
2019-03-04T14:38:37.619Z,7.70
2019-03-04T14:41:08.826Z,7.70
2019-03-04T14:43:37.406Z,7.70
2019-03-04T14:46:05.668Z,7.80
2019-03-04T14:48:37.193Z,7.90
2019-03-04T14:51:07.141Z,7.90
2019-03-04T14:53:36.921Z,7.80
2019-03-04T14:56:05.191Z,7.80
2019-03-04T14:58:33.453Z,7.70
2019-03-04T15:01:01.719Z,7.80
2019-03-04T15:03:31.627Z,7.70
2019-03-04T15:06:06.856Z,7.70
2019-03-04T15:08:31.443Z,7.70
2019-03-04T15:11:00.059Z,7.70
2019-03-04T15:13:28.328Z,7.60
2019-03-04T15:16:01.397Z,7.70
2019-03-04T15:18:26.582Z,7.70
2019-03-04T15:20:54.835Z,7.80
2019-03-04T15:23:23.103Z,7.80
2019-03-04T15:25:53.002Z,7.90
2019-03-04T15:28:25.769Z,7.90
2019-03-04T15:30:56.636Z,7.90
2019-03-04T15:33:24.902Z,7.90
2019-03-04T15:35:53.232Z,8.00
2019-03-04T15:38:25.923Z,7.90
2019-03-04T15:40:54.206Z,7.90
2019-03-04T15:43:22.548Z,7.90
2019-03-04T15:45:52.448Z,7.90
2019-03-04T15:48:23.047Z,7.90
2019-03-04T15:50:55.879Z,7.90
2019-03-04T15:53:24.283Z,8.00
2019-03-04T15:55:54.225Z,8.00
2019-03-04T15:58:22.499Z,8.00
2019-03-04T16:00:51.173Z,8.10
2019-03-04T16:03:19.812Z,8.10
2019-03-04T16:05:48.093Z,8.20
2019-03-04T16:08:16.361Z,8.20
2019-03-04T16:10:44.689Z,8.20
2019-03-04T16:13:13.043Z,8.30
2019-03-04T16:15:44.199Z,8.40
2019-03-04T16:18:12.467Z,8.40
2019-03-04T16:20:40.734Z,8.50
2019-03-04T16:23:09.007Z,8.50
2019-03-04T16:25:37.282Z,8.70
2019-03-04T16:28:11.613Z,8.80
2019-03-04T16:30:41.813Z,8.90
2019-03-04T16:33:13.072Z,8.90
2019-03-04T16:35:45.524Z,9.10
2019-03-04T16:38:17.311Z,9.10
2019-03-04T16:40:45.577Z,9.00
2019-03-04T16:43:13.831Z,9.20
2019-03-04T16:45:44.996Z,9.20
2019-03-04T16:48:13.257Z,9.20
2019-03-04T16:50:43.369Z,9.20
2019-03-04T16:53:24.380Z,9.30
2019-03-04T16:55:52.638Z,9.40
2019-03-04T16:58:22.525Z,9.40
2019-03-04T17:00:51.232Z,9.40
2019-03-04T17:03:21.160Z,9.40
2019-03-04T17:05:49.432Z,9.40
2019-03-04T17:08:17.684Z,9.40
2019-03-04T17:10:47.584Z,9.40
2019-03-04T17:13:15.847Z,9.40
2019-03-04T17:15:46.791Z,9.40
2019-03-04T17:18:17.367Z,9.40
2019-03-04T17:20:45.188Z,9.40
2019-03-04T17:23:13.479Z,9.30
2019-03-04T17:25:41.778Z,9.20
2019-03-04T17:28:13.136Z,9.20
2019-03-04T17:30:42.810Z,9.20
2019-03-04T17:33:11.380Z,9.20
2019-03-04T17:35:39.679Z,9.20
2019-03-04T17:38:07.946Z,9.00
2019-03-04T17:40:36.200Z,8.80
2019-03-04T17:43:04.460Z,8.80
2019-03-04T17:45:32.739Z,8.80
2019-03-04T17:48:01.036Z,8.80
2019-03-04T17:50:46.824Z,8.80
2019-03-04T17:53:16.255Z,8.80
2019-03-04T17:55:45.562Z,8.80
2019-03-04T17:58:13.920Z,8.80
2019-03-04T18:00:47.036Z,8.90
2019-03-04T18:03:15.507Z,9.00
2019-03-04T18:05:43.768Z,8.90
2019-03-04T18:08:12.037Z,8.90
2019-03-04T18:10:40.316Z,8.90
2019-03-04T18:13:14.184Z,8.80
2019-03-04T18:15:43.036Z,8.70
2019-03-04T18:18:15.764Z,8.70
2019-03-04T18:20:44.026Z,8.70
2019-03-04T18:23:12.328Z,8.60
2019-03-04T18:25:46.561Z,8.60
2019-03-04T18:28:18.164Z,8.60
2019-03-04T18:30:55.498Z,8.60
2019-03-04T18:33:43.456Z,8.50
2019-03-04T18:36:29.771Z,8.40
2019-03-04T18:39:07.557Z,8.50
2019-03-04T18:41:44.292Z,8.40
2019-03-04T18:44:24.752Z,8.50
2019-03-04T18:47:29.183Z,8.40
2019-03-04T18:49:58.750Z,8.40
2019-03-04T18:52:27.063Z,8.20
2019-03-04T18:54:55.387Z,8.20
2019-03-04T18:57:23.663Z,8.10
2019-03-04T18:59:54.837Z,8.00
2019-03-04T19:02:23.095Z,8.00
2019-03-04T19:04:51.373Z,8.00
2019-03-04T19:07:19.653Z,8.00
2019-03-04T19:09:50.030Z,8.00
2019-03-04T19:12:18.323Z,8.00
2019-03-04T19:14:46.588Z,8.00
2019-03-04T19:17:16.753Z,8.00
2019-03-04T19:19:45.041Z,7.90
2019-03-04T19:22:20.305Z,7.50
2019-03-04T19:24:51.152Z,7.10
2019-03-04T19:27:21.706Z,7.00
2019-03-04T19:29:50.855Z,6.90
2019-03-04T19:32:19.187Z,6.70
2019-03-04T19:34:47.532Z,6.30
2019-03-04T19:37:15.804Z,6.10
2019-03-04T19:39:44.152Z,5.90
2019-03-04T19:42:13.821Z,5.80
2019-03-04T19:44:42.065Z,5.70
2019-03-04T19:47:14.715Z,5.80
2019-03-04T19:49:43.021Z,5.70
2019-03-04T19:52:12.953Z,5.80
2019-03-04T19:54:41.215Z,5.70
2019-03-04T19:57:09.512Z,5.80
2019-03-04T19:59:37.804Z,5.70
2019-03-04T20:02:08.807Z,5.70
2019-03-04T20:04:42.371Z,5.80
2019-03-04T20:07:10.649Z,5.90
2019-03-04T20:09:42.600Z,5.90
2019-03-04T20:12:12.604Z,6.00
2019-03-04T20:14:40.876Z,6.10
2019-03-04T20:17:15.191Z,6.20
